sensor_id;sensor_type;location;lat;lon;timestamp;temperature;humidity
8595;DHT22;4335;48.860;9.198;2022-10-31T00:01:13;13.00;99.90
8595;DHT22;4335;48.860;9.198;2022-10-31T00:03:40;12.90;99.90
8595;DHT22;4335;48.860;9.198;2022-10-31T00:06:08;12.90;99.90
8595;DHT22;4335;48.860;9.198;2022-10-31T00:08:36;12.90;99.90
8595;DHT22;4335;48.860;9.198;2022-10-31T00:11:03;12.90;99.90
8595;DHT22;4335;48.860;9.198;2022-10-31T00:13:31;12.90;99.90
8595;DHT22;4335;48.860;9.198;2022-10-31T00:15:58;12.80;99.90
8595;DHT22;4335;48.860;9.198;2022-10-31T00:18:27;12.80;99.90
8595;DHT22;4335;48.860;9.198;2022-10-31T00:20:59;12.80;99.90
8595;DHT22;4335;48.860;9.198;2022-10-31T00:23:29;12.80;99.90
8595;DHT22;4335;48.860;9.198;2022-10-31T00:26:00;12.80;99.90
8595;DHT22;4335;48.860;9.198;2022-10-31T00:28:28;12.80;99.90
8595;DHT22;4335;48.860;9.198;2022-10-31T00:30:59;12.70;99.90
8595;DHT22;4335;48.860;9.198;2022-10-31T00:33:28;12.70;99.90
8595;DHT22;4335;48.860;9.198;2022-10-31T00:35:56;12.70;99.90
8595;DHT22;4335;48.860;9.198;2022-10-31T00:38:29;12.70;99.90
8595;DHT22;4335;48.860;9.198;2022-10-31T00:41:01;12.70;99.90
8595;DHT22;4335;48.860;9.198;2022-10-31T00:43:28;12.70;99.90
8595;DHT22;4335;48.860;9.198;2022-10-31T00:45:56;12.70;99.90
8595;DHT22;4335;48.860;9.198;2022-10-31T00:48:23;12.70;99.90
8595;DHT22;4335;48.860;9.198;2022-10-31T00:50:52;12.70;99.90
8595;DHT22;4335;48.860;9.198;2022-10-31T00:53:19;12.60;99.90
8595;DHT22;4335;48.860;9.198;2022-10-31T00:55:47;12.60;99.90
8595;DHT22;4335;48.860;9.198;2022-10-31T00:58:18;12.60;99.90
8595;DHT22;4335;48.860;9.198;2022-10-31T01:00:47;12.60;99.90
8595;DHT22;4335;48.860;9.198;2022-10-31T01:03:21;12.60;99.90
8595;DHT22;4335;48.860;9.198;2022-10-31T01:06:00;12.60;99.90
8595;DHT22;4335;48.860;9.198;2022-10-31T01:08:29;12.50;99.90
8595;DHT22;4335;48.860;9.198;2022-10-31T01:11:05;12.50;99.90
8595;DHT22;4335;48.860;9.198;2022-10-31T01:13:33;12.50;99.90
8595;DHT22;4335;48.860;9.198;2022-10-31T01:16:01;12.50;99.90
8595;DHT22;4335;48.860;9.198;2022-10-31T01:18:29;12.50;99.90
8595;DHT22;4335;48.860;9.198;2022-10-31T01:21:06;12.40;99.90
8595;DHT22;4335;48.860;9.198;2022-10-31T01:23:33;12.40;99.90
8595;DHT22;4335;48.860;9.198;2022-10-31T01:26:06;12.40;99.90
8595;DHT22;4335;48.860;9.198;2022-10-31T01:28:35;12.40;99.90
8595;DHT22;4335;48.860;9.198;2022-10-31T01:31:07;12.40;99.90
8595;DHT22;4335;48.860;9.198;2022-10-31T01:33:36;12.40;99.90
8595;DHT22;4335;48.860;9.198;2022-10-31T01:36:14;12.40;99.90
8595;DHT22;4335;48.860;9.198;2022-10-31T01:38:42;12.30;99.90
8595;DHT22;4335;48.860;9.198;2022-10-31T01:41:11;12.30;99.90
8595;DHT22;4335;48.860;9.198;2022-10-31T01:43:44;12.30;99.90
8595;DHT22;4335;48.860;9.198;2022-10-31T01:46:12;12.30;99.90
8595;DHT22;4335;48.860;9.198;2022-10-31T01:48:40;12.30;99.90
8595;DHT22;4335;48.860;9.198;2022-10-31T01:51:09;12.30;99.90
8595;DHT22;4335;48.860;9.198;2022-10-31T01:53:42;12.20;99.90
8595;DHT22;4335;48.860;9.198;2022-10-31T01:56:13;12.30;99.90
8595;DHT22;4335;48.860;9.198;2022-10-31T01:58:42;12.30;99.90
8595;DHT22;4335;48.860;9.198;2022-10-31T02:01:13;12.30;99.90
8595;DHT22;4335;48.860;9.198;2022-10-31T02:03:41;12.30;99.90
8595;DHT22;4335;48.860;9.198;2022-10-31T02:06:24;12.30;99.90
8595;DHT22;4335;48.860;9.198;2022-10-31T02:08:58;12.30;99.90
8595;DHT22;4335;48.860;9.198;2022-10-31T02:11:41;12.20;99.90
8595;DHT22;4335;48.860;9.198;2022-10-31T02:14:12;12.20;99.90
8595;DHT22;4335;48.860;9.198;2022-10-31T02:16:40;12.20;99.90
8595;DHT22;4335;48.860;9.198;2022-10-31T02:19:09;12.20;99.90
8595;DHT22;4335;48.860;9.198;2022-10-31T02:21:45;12.10;99.90
8595;DHT22;4335;48.860;9.198;2022-10-31T02:24:46;12.20;99.90
8595;DHT22;4335;48.860;9.198;2022-10-31T02:27:42;12.20;99.90
8595;DHT22;4335;48.860;9.198;2022-10-31T02:30:23;12.10;99.90
8595;DHT22;4335;48.860;9.198;2022-10-31T02:33:04;12.10;99.90
8595;DHT22;4335;48.860;9.198;2022-10-31T02:35:43;12.10;99.90
8595;DHT22;4335;48.860;9.198;2022-10-31T02:38:30;12.10;99.90
8595;DHT22;4335;48.860;9.198;2022-10-31T02:41:10;12.00;99.90
8595;DHT22;4335;48.860;9.198;2022-10-31T02:43:49;12.00;99.90
8595;DHT22;4335;48.860;9.198;2022-10-31T02:46:24;12.00;99.90
8595;DHT22;4335;48.860;9.198;2022-10-31T02:48:59;11.90;99.90
8595;DHT22;4335;48.860;9.198;2022-10-31T02:51:32;11.90;99.90
8595;DHT22;4335;48.860;9.198;2022-10-31T02:54:00;11.90;99.90
8595;DHT22;4335;48.860;9.198;2022-10-31T02:56:30;11.90;99.90
8595;DHT22;4335;48.860;9.198;2022-10-31T02:58:59;11.90;99.90
8595;DHT22;4335;48.860;9.198;2022-10-31T03:01:48;11.90;99.90
8595;DHT22;4335;48.860;9.198;2022-10-31T03:04:37;11.90;99.90
8595;DHT22;4335;48.860;9.198;2022-10-31T03:07:18;11.90;99.90
8595;DHT22;4335;48.860;9.198;2022-10-31T03:09:57;11.90;99.90
8595;DHT22;4335;48.860;9.198;2022-10-31T03:12:29;11.90;99.90
8595;DHT22;4335;48.860;9.198;2022-10-31T03:15:03;11.90;99.90
8595;DHT22;4335;48.860;9.198;2022-10-31T03:17:45;11.90;99.90
8595;DHT22;4335;48.860;9.198;2022-10-31T03:20:19;11.80;99.90
8595;DHT22;4335;48.860;9.198;2022-10-31T03:22:50;11.80;99.90
8595;DHT22;4335;48.860;9.198;2022-10-31T03:25:22;11.80;99.90
8595;DHT22;4335;48.860;9.198;2022-10-31T03:27:53;11.80;99.90
8595;DHT22;4335;48.860;9.198;2022-10-31T03:30:21;11.70;99.90
8595;DHT22;4335;48.860;9.198;2022-10-31T03:32:55;11.70;99.90
8595;DHT22;4335;48.860;9.198;2022-10-31T03:35:28;11.70;99.90
8595;DHT22;4335;48.860;9.198;2022-10-31T03:37:56;11.70;99.90
8595;DHT22;4335;48.860;9.198;2022-10-31T03:40:27;11.70;99.90
8595;DHT22;4335;48.860;9.198;2022-10-31T03:42:58;11.70;99.90
8595;DHT22;4335;48.860;9.198;2022-10-31T03:45:28;11.60;99.90
8595;DHT22;4335;48.860;9.198;2022-10-31T03:48:00;11.70;99.90
8595;DHT22;4335;48.860;9.198;2022-10-31T03:50:35;11.70;99.90
8595;DHT22;4335;48.860;9.198;2022-10-31T03:53:08;11.60;99.90
8595;DHT22;4335;48.860;9.198;2022-10-31T03:55:41;11.60;99.90
8595;DHT22;4335;48.860;9.198;2022-10-31T03:58:13;11.60;99.90
8595;DHT22;4335;48.860;9.198;2022-10-31T04:00:46;11.60;99.90
8595;DHT22;4335;48.860;9.198;2022-10-31T04:03:18;11.50;99.90
8595;DHT22;4335;48.860;9.198;2022-10-31T04:05:52;11.50;99.90
8595;DHT22;4335;48.860;9.198;2022-10-31T04:08:22;11.50;99.90
8595;DHT22;4335;48.860;9.198;2022-10-31T04:10:52;11.50;99.90
8595;DHT22;4335;48.860;9.198;2022-10-31T04:13:26;11.50;99.90
8595;DHT22;4335;48.860;9.198;2022-10-31T04:15:55;11.50;99.90
8595;DHT22;4335;48.860;9.198;2022-10-31T04:18:23;11.50;99.90
8595;DHT22;4335;48.860;9.198;2022-10-31T04:20:59;11.50;99.90
8595;DHT22;4335;48.860;9.198;2022-10-31T04:23:27;11.40;99.90
8595;DHT22;4335;48.860;9.198;2022-10-31T04:25:55;11.40;99.90
8595;DHT22;4335;48.860;9.198;2022-10-31T04:28:25;11.40;99.90
8595;DHT22;4335;48.860;9.198;2022-10-31T04:30:53;11.40;99.90
8595;DHT22;4335;48.860;9.198;2022-10-31T04:33:21;11.30;99.90
8595;DHT22;4335;48.860;9.198;2022-10-31T04:35:50;11.30;99.90
8595;DHT22;4335;48.860;9.198;2022-10-31T04:38:23;11.30;99.90
8595;DHT22;4335;48.860;9.198;2022-10-31T04:40:53;11.30;99.90
8595;DHT22;4335;48.860;9.198;2022-10-31T04:43:21;11.40;99.90
8595;DHT22;4335;48.860;9.198;2022-10-31T04:45:54;11.40;99.90
8595;DHT22;4335;48.860;9.198;2022-10-31T04:48:21;11.30;99.90
8595;DHT22;4335;48.860;9.198;2022-10-31T04:50:50;11.30;99.90
8595;DHT22;4335;48.860;9.198;2022-10-31T04:53:18;11.30;99.90
8595;DHT22;4335;48.860;9.198;2022-10-31T04:55:45;11.30;99.90
8595;DHT22;4335;48.860;9.198;2022-10-31T04:58:15;11.20;99.90
8595;DHT22;4335;48.860;9.198;2022-10-31T05:00:43;11.20;99.90
8595;DHT22;4335;48.860;9.198;2022-10-31T05:03:10;11.20;99.90
8595;DHT22;4335;48.860;9.198;2022-10-31T05:05:37;11.20;99.90
8595;DHT22;4335;48.860;9.198;2022-10-31T05:08:06;11.20;99.90
8595;DHT22;4335;48.860;9.198;2022-10-31T05:10:34;11.20;99.90
8595;DHT22;4335;48.860;9.198;2022-10-31T05:13:12;11.20;99.90
8595;DHT22;4335;48.860;9.198;2022-10-31T05:15:40;11.20;99.90
8595;DHT22;4335;48.860;9.198;2022-10-31T05:18:07;11.10;99.90
8595;DHT22;4335;48.860;9.198;2022-10-31T05:20:35;11.10;99.90
8595;DHT22;4335;48.860;9.198;2022-10-31T05:23:02;11.10;99.90
8595;DHT22;4335;48.860;9.198;2022-10-31T05:25:31;11.10;99.90
8595;DHT22;4335;48.860;9.198;2022-10-31T05:27:58;11.10;99.90
8595;DHT22;4335;48.860;9.198;2022-10-31T05:30:31;11.10;99.90
8595;DHT22;4335;48.860;9.198;2022-10-31T05:33:04;11.10;99.90
8595;DHT22;4335;48.860;9.198;2022-10-31T05:35:32;11.10;99.90
8595;DHT22;4335;48.860;9.198;2022-10-31T05:38:00;11.10;99.90
8595;DHT22;4335;48.860;9.198;2022-10-31T05:40:27;11.00;99.90
8595;DHT22;4335;48.860;9.198;2022-10-31T05:42:57;11.00;99.90
8595;DHT22;4335;48.860;9.198;2022-10-31T05:45:25;11.00;99.90
8595;DHT22;4335;48.860;9.198;2022-10-31T05:47:54;11.00;99.90
8595;DHT22;4335;48.860;9.198;2022-10-31T05:50:24;11.00;99.90
8595;DHT22;4335;48.860;9.198;2022-10-31T05:52:56;10.90;99.90
8595;DHT22;4335;48.860;9.198;2022-10-31T05:55:31;10.90;99.90
8595;DHT22;4335;48.860;9.198;2022-10-31T05:58:00;10.90;99.90
8595;DHT22;4335;48.860;9.198;2022-10-31T06:00:27;10.80;99.90
8595;DHT22;4335;48.860;9.198;2022-10-31T06:03:00;10.80;99.90
8595;DHT22;4335;48.860;9.198;2022-10-31T06:05:29;10.80;99.90
8595;DHT22;4335;48.860;9.198;2022-10-31T06:07:59;10.90;99.90
8595;DHT22;4335;48.860;9.198;2022-10-31T06:10:28;10.90;99.90
8595;DHT22;4335;48.860;9.198;2022-10-31T06:12:55;11.00;99.90
8595;DHT22;4335;48.860;9.198;2022-10-31T06:15:24;11.00;99.90
8595;DHT22;4335;48.860;9.198;2022-10-31T06:18:05;11.10;99.90
8595;DHT22;4335;48.860;9.198;2022-10-31T06:20:33;11.10;99.90
8595;DHT22;4335;48.860;9.198;2022-10-31T06:23:01;11.20;99.90
8595;DHT22;4335;48.860;9.198;2022-10-31T06:25:28;11.30;99.90
8595;DHT22;4335;48.860;9.198;2022-10-31T06:27:56;11.30;99.90
8595;DHT22;4335;48.860;9.198;2022-10-31T06:30:25;11.40;99.90
8595;DHT22;4335;48.860;9.198;2022-10-31T06:32:52;11.40;99.90
8595;DHT22;4335;48.860;9.198;2022-10-31T06:35:22;11.50;99.90
8595;DHT22;4335;48.860;9.198;2022-10-31T06:37:53;11.60;99.90
8595;DHT22;4335;48.860;9.198;2022-10-31T06:40:21;11.60;99.90
8595;DHT22;4335;48.860;9.198;2022-10-31T06:42:56;11.60;99.90
8595;DHT22;4335;48.860;9.198;2022-10-31T06:45:25;11.60;99.90
8595;DHT22;4335;48.860;9.198;2022-10-31T06:47:55;11.70;99.90
8595;DHT22;4335;48.860;9.198;2022-10-31T06:50:26;11.70;99.90
8595;DHT22;4335;48.860;9.198;2022-10-31T06:52:54;11.70;99.90
8595;DHT22;4335;48.860;9.198;2022-10-31T06:55:22;11.80;99.90
8595;DHT22;4335;48.860;9.198;2022-10-31T06:57:50;11.80;99.90
8595;DHT22;4335;48.860;9.198;2022-10-31T07:00:27;11.90;99.90
8595;DHT22;4335;48.860;9.198;2022-10-31T07:02:55;12.00;99.90
8595;DHT22;4335;48.860;9.198;2022-10-31T07:05:23;12.00;99.90
8595;DHT22;4335;48.860;9.198;2022-10-31T07:07:52;12.00;99.90
8595;DHT22;4335;48.860;9.198;2022-10-31T07:10:20;12.00;99.90
8595;DHT22;4335;48.860;9.198;2022-10-31T07:12:48;12.00;99.90
8595;DHT22;4335;48.860;9.198;2022-10-31T07:15:18;12.00;99.90
8595;DHT22;4335;48.860;9.198;2022-10-31T07:17:47;12.00;99.90
8595;DHT22;4335;48.860;9.198;2022-10-31T07:20:15;12.00;99.90
8595;DHT22;4335;48.860;9.198;2022-10-31T07:22:52;12.00;99.90
8595;DHT22;4335;48.860;9.198;2022-10-31T07:25:20;12.00;99.90
8595;DHT22;4335;48.860;9.198;2022-10-31T07:27:47;12.00;99.90
8595;DHT22;4335;48.860;9.198;2022-10-31T07:30:15;12.00;99.90
8595;DHT22;4335;48.860;9.198;2022-10-31T07:32:45;12.10;99.90
8595;DHT22;4335;48.860;9.198;2022-10-31T07:35:15;12.10;99.90
8595;DHT22;4335;48.860;9.198;2022-10-31T07:37:43;12.20;99.90
8595;DHT22;4335;48.860;9.198;2022-10-31T07:40:11;12.20;99.90
8595;DHT22;4335;48.860;9.198;2022-10-31T07:42:40;12.30;99.90
8595;DHT22;4335;48.860;9.198;2022-10-31T07:45:15;12.30;99.90
8595;DHT22;4335;48.860;9.198;2022-10-31T07:47:44;12.40;99.90
8595;DHT22;4335;48.860;9.198;2022-10-31T07:50:14;12.40;99.90
8595;DHT22;4335;48.860;9.198;2022-10-31T07:52:42;12.50;99.90
8595;DHT22;4335;48.860;9.198;2022-10-31T07:55:09;12.60;99.90
8595;DHT22;4335;48.860;9.198;2022-10-31T07:57:42;12.60;99.90
8595;DHT22;4335;48.860;9.198;2022-10-31T08:00:10;12.70;99.90
8595;DHT22;4335;48.860;9.198;2022-10-31T08:02:41;12.80;99.90
8595;DHT22;4335;48.860;9.198;2022-10-31T08:05:08;12.90;99.90
8595;DHT22;4335;48.860;9.198;2022-10-31T08:07:37;13.00;99.90
8595;DHT22;4335;48.860;9.198;2022-10-31T08:10:05;13.00;99.90
8595;DHT22;4335;48.860;9.198;2022-10-31T08:12:33;13.10;99.90
8595;DHT22;4335;48.860;9.198;2022-10-31T08:15:00;13.20;99.90
8595;DHT22;4335;48.860;9.198;2022-10-31T08:17:30;13.20;99.90
8595;DHT22;4335;48.860;9.198;2022-10-31T08:20:02;13.30;99.90
8595;DHT22;4335;48.860;9.198;2022-10-31T08:22:38;13.40;99.90
8595;DHT22;4335;48.860;9.198;2022-10-31T08:25:05;13.50;99.90
8595;DHT22;4335;48.860;9.198;2022-10-31T08:27:33;13.50;99.90
8595;DHT22;4335;48.860;9.198;2022-10-31T08:30:00;13.60;99.90
8595;DHT22;4335;48.860;9.198;2022-10-31T08:32:31;13.60;99.90
8595;DHT22;4335;48.860;9.198;2022-10-31T08:34:58;13.70;99.90
8595;DHT22;4335;48.860;9.198;2022-10-31T08:37:26;13.80;99.90
8595;DHT22;4335;48.860;9.198;2022-10-31T08:39:55;13.90;99.90
8595;DHT22;4335;48.860;9.198;2022-10-31T08:42:23;13.90;99.90
8595;DHT22;4335;48.860;9.198;2022-10-31T08:44:56;14.00;99.90
8595;DHT22;4335;48.860;9.198;2022-10-31T08:47:23;14.00;99.90
8595;DHT22;4335;48.860;9.198;2022-10-31T08:49:57;14.00;99.90
8595;DHT22;4335;48.860;9.198;2022-10-31T08:52:24;14.10;99.90
8595;DHT22;4335;48.860;9.198;2022-10-31T08:54:53;14.20;99.90
8595;DHT22;4335;48.860;9.198;2022-10-31T08:57:21;14.30;99.90
8595;DHT22;4335;48.860;9.198;2022-10-31T08:59:54;14.40;99.90
8595;DHT22;4335;48.860;9.198;2022-10-31T09:02:21;14.50;99.90
8595;DHT22;4335;48.860;9.198;2022-10-31T09:04:49;14.60;99.90
8595;DHT22;4335;48.860;9.198;2022-10-31T09:07:19;14.60;99.90
8595;DHT22;4335;48.860;9.198;2022-10-31T09:09:46;14.70;99.90
8595;DHT22;4335;48.860;9.198;2022-10-31T09:12:15;14.80;99.90
8595;DHT22;4335;48.860;9.198;2022-10-31T09:14:48;14.90;99.90
8595;DHT22;4335;48.860;9.198;2022-10-31T09:17:16;14.90;99.90
8595;DHT22;4335;48.860;9.198;2022-10-31T09:19:43;15.10;99.90
8595;DHT22;4335;48.860;9.198;2022-10-31T09:22:13;15.10;99.90
8595;DHT22;4335;48.860;9.198;2022-10-31T09:24:41;15.20;99.90
8595;DHT22;4335;48.860;9.198;2022-10-31T09:27:08;15.40;99.90
8595;DHT22;4335;48.860;9.198;2022-10-31T09:29:37;15.40;99.90
8595;DHT22;4335;48.860;9.198;2022-10-31T09:32:11;15.50;99.90
8595;DHT22;4335;48.860;9.198;2022-10-31T09:34:41;15.50;99.90
8595;DHT22;4335;48.860;9.198;2022-10-31T09:37:08;15.60;99.90
8595;DHT22;4335;48.860;9.198;2022-10-31T09:39:36;15.50;99.90
8595;DHT22;4335;48.860;9.198;2022-10-31T09:42:26;15.60;99.90
8595;DHT22;4335;48.860;9.198;2022-10-31T09:45:05;15.70;99.90
8595;DHT22;4335;48.860;9.198;2022-10-31T09:47:46;15.70;99.90
8595;DHT22;4335;48.860;9.198;2022-10-31T09:50:19;15.70;99.90
8595;DHT22;4335;48.860;9.198;2022-10-31T09:52:57;15.80;99.90
8595;DHT22;4335;48.860;9.198;2022-10-31T09:55:33;15.90;99.90
8595;DHT22;4335;48.860;9.198;2022-10-31T09:58:20;16.00;99.90
8595;DHT22;4335;48.860;9.198;2022-10-31T10:00:52;16.20;99.90
8595;DHT22;4335;48.860;9.198;2022-10-31T10:03:29;16.40;99.90
8595;DHT22;4335;48.860;9.198;2022-10-31T10:06:02;16.50;99.90
8595;DHT22;4335;48.860;9.198;2022-10-31T10:08:33;16.60;99.90
8595;DHT22;4335;48.860;9.198;2022-10-31T10:11:18;16.90;99.90
8595;DHT22;4335;48.860;9.198;2022-10-31T10:14:04;17.10;99.90
8595;DHT22;4335;48.860;9.198;2022-10-31T10:16:47;17.20;99.90
8595;DHT22;4335;48.860;9.198;2022-10-31T10:19:34;17.40;99.90
8595;DHT22;4335;48.860;9.198;2022-10-31T10:22:12;17.50;99.90
8595;DHT22;4335;48.860;9.198;2022-10-31T10:24:53;17.70;99.90
8595;DHT22;4335;48.860;9.198;2022-10-31T10:27:30;18.00;99.90
8595;DHT22;4335;48.860;9.198;2022-10-31T10:30:13;18.20;99.90
8595;DHT22;4335;48.860;9.198;2022-10-31T10:32:46;18.30;99.90
8595;DHT22;4335;48.860;9.198;2022-10-31T10:35:21;18.40;99.90
8595;DHT22;4335;48.860;9.198;2022-10-31T10:37:52;18.40;99.90
8595;DHT22;4335;48.860;9.198;2022-10-31T10:40:22;18.40;99.90
8595;DHT22;4335;48.860;9.198;2022-10-31T10:42:56;18.10;99.90
8595;DHT22;4335;48.860;9.198;2022-10-31T10:45:46;18.00;99.90
8595;DHT22;4335;48.860;9.198;2022-10-31T10:48:41;17.90;99.90
8595;DHT22;4335;48.860;9.198;2022-10-31T10:51:18;17.70;99.90
8595;DHT22;4335;48.860;9.198;2022-10-31T10:53:54;17.60;99.90
8595;DHT22;4335;48.860;9.198;2022-10-31T10:56:42;17.60;99.90
8595;DHT22;4335;48.860;9.198;2022-10-31T10:59:16;17.50;99.90
8595;DHT22;4335;48.860;9.198;2022-10-31T11:01:58;17.40;99.90
8595;DHT22;4335;48.860;9.198;2022-10-31T11:04:40;17.40;99.90
8595;DHT22;4335;48.860;9.198;2022-10-31T11:07:13;17.30;99.90
8595;DHT22;4335;48.860;9.198;2022-10-31T11:09:40;17.20;99.90
8595;DHT22;4335;48.860;9.198;2022-10-31T11:12:10;17.30;99.90
8595;DHT22;4335;48.860;9.198;2022-10-31T11:14:44;17.20;99.90
8595;DHT22;4335;48.860;9.198;2022-10-31T11:17:22;17.10;99.90
8595;DHT22;4335;48.860;9.198;2022-10-31T11:20:26;17.10;99.90
8595;DHT22;4335;48.860;9.198;2022-10-31T11:23:05;17.10;99.90
8595;DHT22;4335;48.860;9.198;2022-10-31T11:25:51;17.10;99.90
8595;DHT22;4335;48.860;9.198;2022-10-31T11:28:19;17.10;99.90
8595;DHT22;4335;48.860;9.198;2022-10-31T11:30:48;17.20;99.90
8595;DHT22;4335;48.860;9.198;2022-10-31T11:33:20;17.20;99.90
8595;DHT22;4335;48.860;9.198;2022-10-31T11:35:49;17.30;99.90
8595;DHT22;4335;48.860;9.198;2022-10-31T11:38:19;17.30;99.90
8595;DHT22;4335;48.860;9.198;2022-10-31T11:40:59;17.40;99.90
8595;DHT22;4335;48.860;9.198;2022-10-31T11:43:30;17.50;99.90
8595;DHT22;4335;48.860;9.198;2022-10-31T11:46:09;17.50;99.90
8595;DHT22;4335;48.860;9.198;2022-10-31T11:48:37;17.50;99.90
8595;DHT22;4335;48.860;9.198;2022-10-31T11:51:06;17.60;99.90
8595;DHT22;4335;48.860;9.198;2022-10-31T11:53:34;17.50;99.90
8595;DHT22;4335;48.860;9.198;2022-10-31T11:56:05;17.50;99.90
8595;DHT22;4335;48.860;9.198;2022-10-31T11:58:33;17.60;99.90
8595;DHT22;4335;48.860;9.198;2022-10-31T12:01:23;17.60;99.90
8595;DHT22;4335;48.860;9.198;2022-10-31T12:04:06;17.70;99.90
8595;DHT22;4335;48.860;9.198;2022-10-31T12:06:36;17.60;99.90
8595;DHT22;4335;48.860;9.198;2022-10-31T12:09:16;17.70;99.90
8595;DHT22;4335;48.860;9.198;2022-10-31T12:11:52;17.70;99.90
8595;DHT22;4335;48.860;9.198;2022-10-31T12:14:31;17.70;99.90
8595;DHT22;4335;48.860;9.198;2022-10-31T12:17:11;17.80;99.90
8595;DHT22;4335;48.860;9.198;2022-10-31T12:19:42;17.80;99.90
8595;DHT22;4335;48.860;9.198;2022-10-31T12:22:23;17.80;99.90
8595;DHT22;4335;48.860;9.198;2022-10-31T12:25:12;17.80;99.90
8595;DHT22;4335;48.860;9.198;2022-10-31T12:28:03;17.80;99.90
8595;DHT22;4335;48.860;9.198;2022-10-31T12:30:48;17.80;99.90
8595;DHT22;4335;48.860;9.198;2022-10-31T12:33:36;17.90;99.90
8595;DHT22;4335;48.860;9.198;2022-10-31T12:36:29;17.90;99.90
8595;DHT22;4335;48.860;9.198;2022-10-31T12:39:14;18.00;99.90
8595;DHT22;4335;48.860;9.198;2022-10-31T12:41:49;18.10;99.90
8595;DHT22;4335;48.860;9.198;2022-10-31T12:44:43;18.00;99.90
8595;DHT22;4335;48.860;9.198;2022-10-31T12:47:32;18.10;99.90
8595;DHT22;4335;48.860;9.198;2022-10-31T12:50:15;18.00;99.90
8595;DHT22;4335;48.860;9.198;2022-10-31T12:52:54;18.10;99.90
8595;DHT22;4335;48.860;9.198;2022-10-31T12:55:40;18.00;99.90
8595;DHT22;4335;48.860;9.198;2022-10-31T12:58:13;18.00;99.90
8595;DHT22;4335;48.860;9.198;2022-10-31T13:00:44;17.90;99.90
8595;DHT22;4335;48.860;9.198;2022-10-31T13:03:24;17.90;99.90
8595;DHT22;4335;48.860;9.198;2022-10-31T13:05:56;17.90;99.90
8595;DHT22;4335;48.860;9.198;2022-10-31T13:08:28;17.90;99.90
8595;DHT22;4335;48.860;9.198;2022-10-31T13:11:05;17.90;99.90
8595;DHT22;4335;48.860;9.198;2022-10-31T13:13:38;17.80;99.90
8595;DHT22;4335;48.860;9.198;2022-10-31T13:16:13;17.80;99.90
8595;DHT22;4335;48.860;9.198;2022-10-31T13:18:44;17.70;99.90
8595;DHT22;4335;48.860;9.198;2022-10-31T13:21:19;17.60;99.90
8595;DHT22;4335;48.860;9.198;2022-10-31T13:23:51;17.70;99.90
8595;DHT22;4335;48.860;9.198;2022-10-31T13:26:33;17.60;99.90
8595;DHT22;4335;48.860;9.198;2022-10-31T13:29:09;17.60;99.90
8595;DHT22;4335;48.860;9.198;2022-10-31T13:31:43;17.60;99.90
8595;DHT22;4335;48.860;9.198;2022-10-31T13:34:20;17.60;99.90
8595;DHT22;4335;48.860;9.198;2022-10-31T13:36:59;17.60;99.90
8595;DHT22;4335;48.860;9.198;2022-10-31T13:39:41;17.60;99.90
8595;DHT22;4335;48.860;9.198;2022-10-31T13:42:18;17.60;99.90
8595;DHT22;4335;48.860;9.198;2022-10-31T13:44:49;17.60;99.90
8595;DHT22;4335;48.860;9.198;2022-10-31T13:47:25;17.70;99.90
8595;DHT22;4335;48.860;9.198;2022-10-31T13:50:05;17.80;99.90
8595;DHT22;4335;48.860;9.198;2022-10-31T13:52:33;17.90;99.90
8595;DHT22;4335;48.860;9.198;2022-10-31T13:55:00;18.00;99.90
8595;DHT22;4335;48.860;9.198;2022-10-31T13:57:37;18.20;99.90
8595;DHT22;4335;48.860;9.198;2022-10-31T14:00:23;18.30;99.90
8595;DHT22;4335;48.860;9.198;2022-10-31T14:02:56;18.40;99.90
8595;DHT22;4335;48.860;9.198;2022-10-31T14:05:31;18.40;99.90
8595;DHT22;4335;48.860;9.198;2022-10-31T14:08:02;18.40;99.90
8595;DHT22;4335;48.860;9.198;2022-10-31T14:10:32;18.40;99.90
8595;DHT22;4335;48.860;9.198;2022-10-31T14:13:20;18.40;99.90
8595;DHT22;4335;48.860;9.198;2022-10-31T14:15:54;18.30;99.90
8595;DHT22;4335;48.860;9.198;2022-10-31T14:18:35;18.20;99.90
8595;DHT22;4335;48.860;9.198;2022-10-31T14:21:15;18.10;99.90
8595;DHT22;4335;48.860;9.198;2022-10-31T14:23:45;18.00;99.90
8595;DHT22;4335;48.860;9.198;2022-10-31T14:26:30;17.90;99.90
8595;DHT22;4335;48.860;9.198;2022-10-31T14:29:00;17.80;99.90
8595;DHT22;4335;48.860;9.198;2022-10-31T14:31:33;17.70;99.90
8595;DHT22;4335;48.860;9.198;2022-10-31T14:34:19;17.60;99.90
8595;DHT22;4335;48.860;9.198;2022-10-31T14:36:58;17.50;99.90
8595;DHT22;4335;48.860;9.198;2022-10-31T14:39:32;17.50;99.90
8595;DHT22;4335;48.860;9.198;2022-10-31T14:42:13;17.50;99.90
8595;DHT22;4335;48.860;9.198;2022-10-31T14:48:03;17.40;99.90
8595;DHT22;4335;48.860;9.198;2022-10-31T14:50:49;17.40;99.90
8595;DHT22;4335;48.860;9.198;2022-10-31T14:53:20;17.40;99.90
8595;DHT22;4335;48.860;9.198;2022-10-31T14:55:55;17.30;99.90
8595;DHT22;4335;48.860;9.198;2022-10-31T14:58:32;17.30;99.90
8595;DHT22;4335;48.860;9.198;2022-10-31T15:01:03;17.20;99.90
8595;DHT22;4335;48.860;9.198;2022-10-31T15:03:33;17.20;99.90
8595;DHT22;4335;48.860;9.198;2022-10-31T15:06:05;17.10;99.90
8595;DHT22;4335;48.860;9.198;2022-10-31T15:08:40;17.10;99.90
8595;DHT22;4335;48.860;9.198;2022-10-31T15:11:11;17.10;99.90
8595;DHT22;4335;48.860;9.198;2022-10-31T15:13:49;17.00;99.90
8595;DHT22;4335;48.860;9.198;2022-10-31T15:16:19;17.00;99.90
8595;DHT22;4335;48.860;9.198;2022-10-31T15:18:54;17.00;99.90
8595;DHT22;4335;48.860;9.198;2022-10-31T15:21:24;17.00;99.90
8595;DHT22;4335;48.860;9.198;2022-10-31T15:23:56;17.00;99.90
8595;DHT22;4335;48.860;9.198;2022-10-31T15:26:31;16.90;99.90
8595;DHT22;4335;48.860;9.198;2022-10-31T15:29:00;16.90;99.90
8595;DHT22;4335;48.860;9.198;2022-10-31T15:31:31;16.80;99.90
8595;DHT22;4335;48.860;9.198;2022-10-31T15:34:11;16.80;99.90
8595;DHT22;4335;48.860;9.198;2022-10-31T15:36:40;16.70;99.90
8595;DHT22;4335;48.860;9.198;2022-10-31T15:39:10;16.70;99.90
8595;DHT22;4335;48.860;9.198;2022-10-31T15:41:48;16.60;99.90
8595;DHT22;4335;48.860;9.198;2022-10-31T15:44:22;16.50;99.90
8595;DHT22;4335;48.860;9.198;2022-10-31T15:46:56;16.50;99.90
8595;DHT22;4335;48.860;9.198;2022-10-31T15:49:38;16.40;99.90
8595;DHT22;4335;48.860;9.198;2022-10-31T15:52:12;16.40;99.90
8595;DHT22;4335;48.860;9.198;2022-10-31T15:54:46;16.30;99.90
8595;DHT22;4335;48.860;9.198;2022-10-31T15:57:20;16.20;99.90
8595;DHT22;4335;48.860;9.198;2022-10-31T15:59:49;16.20;99.90
8595;DHT22;4335;48.860;9.198;2022-10-31T16:02:23;16.10;99.90
8595;DHT22;4335;48.860;9.198;2022-10-31T16:05:00;16.10;99.90
8595;DHT22;4335;48.860;9.198;2022-10-31T16:07:34;16.10;99.90
8595;DHT22;4335;48.860;9.198;2022-10-31T16:10:03;16.10;99.90
8595;DHT22;4335;48.860;9.198;2022-10-31T16:12:34;16.00;99.90
8595;DHT22;4335;48.860;9.198;2022-10-31T16:15:04;16.00;99.90
8595;DHT22;4335;48.860;9.198;2022-10-31T16:17:40;15.90;99.90
8595;DHT22;4335;48.860;9.198;2022-10-31T16:20:19;15.90;99.90
8595;DHT22;4335;48.860;9.198;2022-10-31T16:22:50;15.90;99.90
8595;DHT22;4335;48.860;9.198;2022-10-31T16:25:24;15.80;99.90
8595;DHT22;4335;48.860;9.198;2022-10-31T16:27:59;15.80;99.90
8595;DHT22;4335;48.860;9.198;2022-10-31T16:30:36;15.70;99.90
8595;DHT22;4335;48.860;9.198;2022-10-31T16:33:22;15.70;99.90
8595;DHT22;4335;48.860;9.198;2022-10-31T16:35:58;15.60;99.90
8595;DHT22;4335;48.860;9.198;2022-10-31T16:38:32;15.60;99.90
8595;DHT22;4335;48.860;9.198;2022-10-31T16:41:00;15.60;99.90
8595;DHT22;4335;48.860;9.198;2022-10-31T16:43:31;15.60;99.90